Time;durP1;ratioP1;P1;durP2;ratioP2;P2;SDS_P1;SDS_P2;PMS_P1;PMS_P2;Temp;Humidity;BMP_temperature;BMP_pressure;BME280_temperature;BME280_humidity;BME280_pressure;Samples;Min_cycle;Max_cycle;Signal;HPM_P1;HPM_P2
2022/09/10 00:01:27;;;;;;;4.05;2.00;;;;;;;26.28;41.62;101576.72;5092709;28;20028;-49
2022/09/10 00:03:55;;;;;;;4.38;1.70;;;;;;;26.27;41.60;101563.56;5092599;28;20512;-51
2022/09/10 00:06:26;;;;;;;3.00;1.40;;;;;;;26.25;41.85;101563.53;5092648;28;20031;-49
2022/09/10 00:08:57;;;;;;;5.32;1.60;;;;;;;26.21;41.69;101567.88;5092784;28;20475;-51
2022/09/10 00:11:30;;;;;;;4.68;1.83;;;;;;;26.23;41.96;101560.91;5092734;28;20031;-51
2022/09/10 00:14:00;;;;;;;4.70;1.50;;;;;;;26.15;41.88;101554.63;5075098;28;20028;-52
2022/09/10 00:16:30;;;;;;;4.10;1.65;;;;;;;26.16;41.85;101564.28;5092582;28;20123;-50
2022/09/10 00:18:58;;;;;;;2.92;1.33;;;;;;;26.15;41.86;101553.78;5092615;28;20028;-48
2022/09/10 00:21:27;;;;;;;2.63;1.40;;;;;;;26.17;41.76;101544.16;5092705;28;20016;-51
2022/09/10 00:23:56;;;;;;;2.58;1.30;;;;;;;26.13;41.83;101544.97;5095148;28;20028;-51
2022/09/10 00:26:27;;;;;;;5.82;1.50;;;;;;;26.15;41.77;101548.50;5096393;28;20059;-50
2022/09/10 00:28:58;;;;;;;9.00;1.88;;;;;;;26.13;41.71;101547.59;5096572;28;20027;-49
2022/09/10 00:31:27;;;;;;;6.40;1.50;;;;;;;26.11;41.63;101544.97;5096261;28;20454;-49
2022/09/10 00:33:56;;;;;;;3.45;1.40;;;;;;;26.09;41.82;101539.63;5096424;28;20054;-50
2022/09/10 00:36:28;;;;;;;2.58;1.40;;;;;;;26.13;41.82;101543.25;5096295;28;20024;-51
2022/09/10 00:38:59;;;;;;;3.17;1.33;;;;;;;26.15;41.67;101536.22;5096348;28;20466;-50
2022/09/10 00:41:28;;;;;;;3.95;1.48;;;;;;;26.13;41.98;101545.88;5096215;28;20024;-51
2022/09/10 00:43:59;;;;;;;2.85;1.20;;;;;;;26.06;42.02;101536.97;5096206;28;20467;-50
2022/09/10 00:46:36;;;;;;;7.93;1.77;;;;;;;26.13;41.83;101543.25;5095669;28;20142;-48
2022/09/10 00:49:14;;;;;;;3.05;1.33;;;;;;;26.05;41.89;101539.59;5096015;28;20032;-50
2022/09/10 00:51:43;;;;;;;2.97;1.15;;;;;;;26.07;41.86;101535.22;5096042;28;20055;-48
2022/09/10 00:54:11;;;;;;;5.95;1.52;;;;;;;26.03;42.03;101530.78;5077827;28;20027;-50
2022/09/10 00:56:39;;;;;;;3.58;1.33;;;;;;;26.06;41.66;101534.34;5077897;28;20042;-50
2022/09/10 00:59:09;;;;;;;6.88;1.77;;;;;;;26.03;41.90;101539.56;5077765;28;20032;-51
2022/09/10 01:01:38;;;;;;;5.07;2.10;;;;;;;26.04;41.87;101529.94;5077719;28;20028;-50
2022/09/10 01:04:09;;;;;;;4.63;1.48;;;;;;;26.06;41.68;101536.97;5095457;28;20047;-51
2022/09/10 01:06:39;;;;;;;6.88;1.67;;;;;;;26.04;41.83;101543.06;5095753;28;20103;-51
2022/09/10 01:09:08;;;;;;;3.05;1.27;;;;;;;26.02;41.67;101537.81;5077731;28;20024;-51
2022/09/10 01:11:46;;;;;;;5.97;1.48;;;;;;;25.99;41.97;101531.59;5095696;28;20456;-46
2022/09/10 01:14:14;;;;;;;3.38;1.50;;;;;;;26.02;41.87;101532.56;5077511;28;20112;-48
2022/09/10 01:16:57;;;;;;;3.80;1.30;;;;;;;26.00;41.89;101526.38;5095420;28;20035;-48
2022/09/10 01:19:48;;;;;;;5.30;1.20;;;;;;;25.97;42.26;101528.09;5077681;28;20106;-51
2022/09/10 01:22:34;;;;;;;3.10;1.40;;;;;;;26.03;41.74;101534.31;5095646;28;20462;-51
2022/09/10 01:25:24;;;;;;;3.47;1.10;;;;;;;26.00;41.97;101533.38;5094695;28;20044;-49
2022/09/10 01:27:55;;;;;;;3.03;1.33;;;;;;;26.01;41.63;101528.16;5095380;28;20102;-50
2022/09/10 01:30:41;;;;;;;3.47;1.33;;;;;;;25.97;41.68;101520.22;5095307;28;20025;-50
2022/09/10 01:33:29;;;;;;;3.30;1.23;;;;;;;25.95;41.98;101514.91;5095051;28;20066;-51
2022/09/10 01:36:01;;;;;;;2.25;0.80;;;;;;;25.91;41.87;101519.25;5094928;28;20047;-47
2022/09/10 01:38:34;;;;;;;3.60;1.30;;;;;;;25.92;42.00;101514.88;5094947;28;20085;-50
2022/09/10 01:41:04;;;;;;;3.85;1.10;;;;;;;25.94;41.78;101516.69;5077412;28;20028;-49
2022/09/10 01:43:32;;;;;;;5.28;1.05;;;;;;;25.94;42.06;101519.31;5094831;28;20035;-47
2022/09/10 01:46:21;;;;;;;3.60;1.13;;;;;;;25.91;42.19;101513.09;5094597;28;20031;-49
2022/09/10 01:49:12;;;;;;;3.40;0.90;;;;;;;25.93;41.95;101516.63;5094911;28;20031;-46
2022/09/10 01:51:47;;;;;;;2.40;1.15;;;;;;;25.91;41.98;101515.72;5069239;28;20394;-47
2022/09/10 01:54:55;;;;;;;2.28;0.90;;;;;;;25.93;41.94;101514.91;5094518;28;20032;-47
2022/09/10 01:57:43;;;;;;;5.68;1.98;;;;;;;25.89;41.74;101506.97;5077756;28;20040;-46
2022/09/10 02:00:12;;;;;;;4.53;1.17;;;;;;;25.93;41.71;101509.66;5094908;28;20471;-46
2022/09/10 02:02:44;;;;;;;3.92;1.02;;;;;;;25.93;41.89;101500.88;5094953;28;20585;-50
2022/09/10 02:05:13;;;;;;;3.35;0.98;;;;;;;25.91;41.74;101497.31;5094711;28;20109;-47
2022/09/10 02:07:43;;;;;;;4.72;1.27;;;;;;;25.85;41.94;101498.13;5094457;28;20522;-50
2022/09/10 02:10:12;;;;;;;2.33;0.98;;;;;;;25.88;41.80;101503.44;5094294;28;20493;-48
2022/09/10 02:12:40;;;;;;;2.40;0.90;;;;;;;25.92;41.84;101500.00;5094203;28;20406;-51
2022/09/10 02:15:10;;;;;;;2.45;0.95;;;;;;;25.87;41.79;101496.41;5076567;28;20031;-48
2022/09/10 02:17:39;;;;;;;2.47;0.73;;;;;;;25.85;41.84;101495.50;5094362;28;20019;-49
2022/09/10 02:20:10;;;;;;;4.15;1.15;;;;;;;25.85;42.06;101494.63;5076538;28;20028;-50
2022/09/10 02:22:52;;;;;;;2.85;1.00;;;;;;;25.86;41.93;101492.03;5076246;28;20093;-51
2022/09/10 02:25:21;;;;;;;5.00;1.10;;;;;;;25.87;41.84;101495.53;5075890;28;20101;-48
2022/09/10 02:27:48;;;;;;;8.23;0.98;;;;;;;25.89;41.66;101492.06;5093984;28;20036;-52
2022/09/10 02:30:19;;;;;;;4.15;1.05;;;;;;;25.82;42.00;101481.44;5093923;28;20072;-50
2022/09/10 02:32:47;;;;;;;2.30;1.00;;;;;;;25.86;41.91;101491.16;5093971;28;20038;-51
2022/09/10 02:35:16;;;;;;;2.78;1.00;;;;;;;25.84;41.74;101485.00;5093792;28;20024;-48
2022/09/10 02:37:44;;;;;;;4.72;1.05;;;;;;;25.85;41.95;101485.00;5093686;28;20115;-47
2022/09/10 02:40:13;;;;;;;3.15;1.08;;;;;;;25.85;41.87;101478.88;5094057;28;20466;-48
2022/09/10 02:42:45;;;;;;;2.08;0.90;;;;;;;25.84;41.83;101483.22;5093944;28;20024;-47
2022/09/10 02:45:14;;;;;;;2.55;0.75;;;;;;;25.84;41.84;101493.75;5093263;28;20099;-48
2022/09/10 02:47:42;;;;;;;3.97;0.88;;;;;;;25.81;41.67;101484.94;5093865;28;20028;-50
2022/09/10 02:50:11;;;;;;;4.00;0.90;;;;;;;25.79;41.73;101479.69;5093600;28;20027;-51
2022/09/10 02:52:39;;;;;;;2.95;0.93;;;;;;;25.84;41.83;101490.25;5093534;28;20355;-49
2022/09/10 02:55:08;;;;;;;2.40;0.90;;;;;;;25.83;41.90;101494.59;5093651;28;20081;-49
2022/09/10 02:57:38;;;;;;;7.55;1.50;;;;;;;25.81;41.75;101490.19;5075460;28;20100;-50
2022/09/10 03:00:07;;;;;;;2.22;1.02;;;;;;;25.79;41.87;101492.81;5093805;28;20020;-51
2022/09/10 03:02:36;;;;;;;2.97;0.80;;;;;;;25.84;41.93;101500.75;5093464;28;20039;-49
2022/09/10 03:05:05;;;;;;;2.78;0.70;;;;;;;25.85;41.61;101503.41;5093234;28;20028;-51
2022/09/10 03:07:34;;;;;;;2.75;0.93;;;;;;;25.82;41.72;101505.09;5093457;28;20111;-49
2022/09/10 03:10:02;;;;;;;2.20;0.60;;;;;;;25.67;41.79;101492.63;5093180;28;20028;-50
2022/09/10 03:12:31;;;;;;;2.67;0.85;;;;;;;25.76;41.91;101509.41;5093297;28;20031;-51
2022/09/10 03:14:59;;;;;;;2.50;1.02;;;;;;;25.73;42.04;101501.47;5093209;28;20028;-50
2022/09/10 03:17:28;;;;;;;2.58;0.80;;;;;;;25.74;41.86;101503.25;5092998;28;20475;-49
2022/09/10 03:19:57;;;;;;;3.70;1.10;;;;;;;25.74;41.86;101508.50;5093214;28;20038;-49
2022/09/10 03:22:25;;;;;;;1.92;0.68;;;;;;;25.77;41.82;101508.53;5092945;28;20059;-50
2022/09/10 03:24:54;;;;;;;2.05;0.85;;;;;;;25.75;41.91;101506.75;5092754;28;20123;-48
2022/09/10 03:27:22;;;;;;;7.35;1.17;;;;;;;25.75;41.83;101505.00;5092857;28;20467;-50
2022/09/10 03:29:50;;;;;;;1.17;0.50;;;;;;;25.77;41.98;101502.41;5092879;28;20089;-51
2022/09/10 03:32:18;;;;;;;2.20;0.70;;;;;;;25.78;41.63;101501.56;5093006;28;20504;-46
2022/09/10 03:34:48;;;;;;;6.35;1.50;;;;;;;25.77;41.72;101505.91;5093026;28;20107;-49
2022/09/10 03:37:17;;;;;;;5.72;0.85;;;;;;;25.77;41.79;101507.69;5093023;28;20111;-50
2022/09/10 03:39:45;;;;;;;2.55;1.00;;;;;;;25.79;41.69;101519.09;5092601;28;20108;-51
2022/09/10 03:42:15;;;;;;;2.53;0.90;;;;;;;25.73;41.72;101513.75;5092649;28;20039;-46
2022/09/10 03:44:43;;;;;;;3.13;0.95;;;;;;;25.74;41.56;101503.25;5092684;28;20044;-50
2022/09/10 03:47:12;;;;;;;4.40;1.08;;;;;;;25.73;41.94;101508.50;5092593;28;20032;-48
2022/09/10 03:49:40;;;;;;;2.83;0.70;;;;;;;25.70;41.85;101508.44;5092637;28;20028;-46
2022/09/10 03:52:11;;;;;;;3.78;0.90;;;;;;;25.75;41.64;101518.16;5092568;28;20470;-51
2022/09/10 03:54:40;;;;;;;2.45;0.70;;;;;;;25.74;41.80;101513.75;5092727;28;20040;-46
2022/09/10 03:57:08;;;;;;;5.18;1.05;;;;;;;25.74;41.70;101515.50;5092668;28;20082;-46
2022/09/10 03:59:40;;;;;;;2.70;1.27;;;;;;;25.72;41.66;101509.34;5096588;28;20085;-46
2022/09/10 04:02:08;;;;;;;3.10;0.82;;;;;;;25.68;41.90;101508.44;5097067;28;20024;-46
2022/09/10 04:04:37;;;;;;;1.80;0.63;;;;;;;25.73;41.78;101508.50;5097126;28;20036;-46
2022/09/10 04:07:06;;;;;;;1.02;0.50;;;;;;;25.77;41.54;101510.31;5096834;28;20542;-51
2022/09/10 04:09:34;;;;;;;3.45;0.70;;;;;;;25.77;41.43;101510.31;5096606;28;20500;-51
2022/09/10 04:12:03;;;;;;;1.90;0.70;;;;;;;25.81;41.33;101506.88;5096720;28;20032;-51
2022/09/10 04:14:30;;;;;;;4.05;0.85;;;;;;;25.78;41.34;101507.69;5096978;28;20043;-50
2022/09/10 04:16:59;;;;;;;2.40;0.70;;;;;;;25.75;41.85;101507.63;5096842;28;20495;-50
2022/09/10 04:19:28;;;;;;;3.60;1.13;;;;;;;25.72;41.50;101514.59;5096776;28;20042;-49
2022/09/10 04:21:56;;;;;;;1.88;0.85;;;;;;;25.70;41.58;101511.06;5096433;28;20028;-47
2022/09/10 04:24:25;;;;;;;2.55;0.80;;;;;;;25.71;41.43;101510.22;5096262;28;20028;-46
2022/09/10 04:26:53;;;;;;;3.58;0.63;;;;;;;25.71;41.42;101513.72;5096528;28;20169;-50
2022/09/10 04:29:21;;;;;;;4.00;0.80;;;;;;;25.78;41.43;101510.31;5096537;28;20024;-49
2022/09/10 04:31:50;;;;;;;1.63;0.82;;;;;;;25.87;41.28;101511.31;5096196;28;20020;-50
2022/09/10 04:34:18;;;;;;;6.68;1.10;;;;;;;25.87;41.14;101512.19;5096575;28;20027;-50
2022/09/10 04:36:47;;;;;;;3.05;0.80;;;;;;;25.76;41.08;101504.16;5096396;28;20020;-47
2022/09/10 04:39:15;;;;;;;2.05;0.82;;;;;;;25.85;41.43;101507.78;5096283;28;20070;-50
2022/09/10 04:41:44;;;;;;;3.28;0.90;;;;;;;25.88;41.29;101505.19;5096401;28;20028;-47
2022/09/10 04:44:12;;;;;;;4.75;1.10;;;;;;;25.90;40.93;101511.34;5096006;28;20479;-46
2022/09/10 04:46:41;;;;;;;3.05;1.00;;;;;;;25.81;41.11;101513.84;5096061;28;20032;-47
2022/09/10 04:49:10;;;;;;;4.25;0.82;;;;;;;25.81;41.17;101505.97;5096119;28;20074;-50
2022/09/10 04:51:38;;;;;;;2.00;0.60;;;;;;;25.81;41.29;101506.88;5095923;28;20024;-48
2022/09/10 04:54:07;;;;;;;2.08;0.77;;;;;;;25.80;40.91;101507.72;5096036;28;20111;-47
2022/09/10 04:56:35;;;;;;;3.20;1.13;;;;;;;25.76;41.39;101501.53;5095849;28;20046;-47
2022/09/10 04:59:04;;;;;;;1.63;0.75;;;;;;;25.84;41.04;101508.63;5095967;28;20020;-49
2022/09/10 05:01:32;;;;;;;3.22;0.70;;;;;;;25.79;41.22;101503.31;5095604;28;20036;-47
2022/09/10 05:04:01;;;;;;;3.25;0.90;;;;;;;25.78;41.38;101510.31;5095712;28;20024;-51
2022/09/10 05:06:29;;;;;;;3.42;0.98;;;;;;;25.77;41.13;101503.28;5095577;28;20395;-50
2022/09/10 05:08:57;;;;;;;5.03;1.13;;;;;;;25.74;41.20;101508.50;5095153;28;20394;-46
2022/09/10 05:11:25;;;;;;;2.63;0.80;;;;;;;25.76;41.07;101517.28;5095638;28;20021;-47
2022/09/10 05:13:54;;;;;;;2.95;1.10;;;;;;;25.77;41.17;101512.94;5095441;28;20447;-50
2022/09/10 05:16:21;;;;;;;1.33;0.60;;;;;;;25.79;41.11;101521.72;5095429;28;20039;-50
2022/09/10 05:18:50;;;;;;;3.08;0.60;;;;;;;25.83;41.07;101523.50;5095100;28;20032;-47
2022/09/10 05:21:18;;;;;;;4.30;0.60;;;;;;;25.85;41.09;101518.28;5095322;28;20478;-50
2022/09/10 05:23:46;;;;;;;2.95;0.90;;;;;;;25.79;40.96;101511.22;5095420;28;20036;-50
2022/09/10 05:26:14;;;;;;;3.40;0.80;;;;;;;25.79;40.97;101524.34;5095152;28;20131;-51
2022/09/10 05:28:42;;;;;;;1.50;0.70;;;;;;;25.85;40.68;101534.06;5095117;28;20372;-47
2022/09/10 05:31:11;;;;;;;6.43;0.88;;;;;;;25.90;40.45;101525.38;5095376;28;20016;-50
2022/09/10 05:33:39;;;;;;;4.28;0.90;;;;;;;25.88;40.63;101534.13;5094995;28;20059;-49
2022/09/10 05:36:09;;;;;;;2.45;1.10;;;;;;;25.80;40.99;101526.13;5094734;28;20026;-48
2022/09/10 05:38:38;;;;;;;3.67;0.93;;;;;;;25.82;40.78;101529.63;5095294;28;20063;-47
2022/09/10 05:41:09;;;;;;;4.60;0.82;;;;;;;25.87;40.86;101532.34;5095120;28;20470;-50
2022/09/10 05:43:37;;;;;;;1.20;0.55;;;;;;;25.78;40.67;101539.22;5095080;28;20077;-49
2022/09/10 05:46:07;;;;;;;7.65;1.27;;;;;;;25.71;40.90;101542.63;5094878;28;20034;-47
2022/09/10 05:48:36;;;;;;;2.65;0.80;;;;;;;25.74;40.81;101553.16;5094852;28;20035;-46
2022/09/10 05:51:04;;;;;;;2.67;0.93;;;;;;;25.81;40.66;101542.75;5094582;28;20446;-50
2022/09/10 05:53:33;;;;;;;5.55;1.08;;;;;;;25.67;40.35;101532.03;5094525;28;20051;-45
2022/09/10 05:56:01;;;;;;;3.95;0.95;;;;;;;25.76;40.60;101554.06;5094528;28;20024;-47
2022/09/10 05:58:28;;;;;;;2.65;0.70;;;;;;;25.71;40.37;101541.75;5081814;28;20038;-53
2022/09/10 06:00:57;;;;;;;2.55;0.90;;;;;;;25.69;40.78;101554.88;5071165;28;20085;-48
2022/09/10 06:03:25;;;;;;;3.88;0.80;;;;;;;25.79;40.49;101548.00;5075591;28;20043;-46
2022/09/10 06:05:54;;;;;;;2.88;0.90;;;;;;;25.74;40.76;101553.16;5066701;28;20067;-46
2022/09/10 06:08:23;;;;;;;3.10;0.77;;;;;;;25.64;40.88;101551.28;5070813;28;20028;-48
2022/09/10 06:11:10;;;;;;;4.60;0.73;;;;;;;25.70;41.00;101555.72;5073441;28;20487;-48
2022/09/10 06:13:41;;;;;;;4.63;1.13;;;;;;;25.82;40.68;101565.56;5077695;28;20070;-50
2022/09/10 06:16:09;;;;;;;8.43;1.30;;;;;;;25.74;40.71;101563.69;5065000;28;20134;-49
2022/09/10 06:18:37;;;;;;;3.05;0.93;;;;;;;25.67;40.64;101568.81;5071138;28;20029;-47
2022/09/10 06:21:12;;;;;;;5.22;0.82;;;;;;;25.66;40.70;101575.84;5064073;28;20543;-51
2022/09/10 06:23:40;;;;;;;3.88;0.82;;;;;;;25.60;41.05;101571.38;5071040;28;20482;-48
2022/09/10 06:26:12;;;;;;;3.92;0.95;;;;;;;25.65;40.85;101576.69;5076047;28;20048;-47
2022/09/10 06:28:41;;;;;;;5.38;1.17;;;;;;;25.71;40.72;101576.78;5072864;28;20032;-50
2022/09/10 06:31:15;;;;;;;7.50;1.35;;;;;;;25.65;40.95;101583.72;5070986;28;20479;-51
2022/09/10 06:33:45;;;;;;;5.43;1.15;;;;;;;25.68;40.70;101581.09;5070144;28;20667;-47
2022/09/10 06:36:14;;;;;;;5.28;1.40;;;;;;;25.73;40.73;101579.44;5067244;28;20398;-47
2022/09/10 06:38:44;;;;;;;3.13;1.02;;;;;;;25.75;40.45;101577.72;5070652;28;20930;-53
2022/09/10 06:41:15;;;;;;;3.55;0.90;;;;;;;25.79;40.70;101590.06;5076334;28;20063;-48
2022/09/10 06:43:43;;;;;;;3.25;0.93;;;;;;;25.70;40.85;101585.53;5067991;28;20483;-50
2022/09/10 06:46:16;;;;;;;6.53;1.00;;;;;;;25.69;40.84;101586.41;5073859;28;20082;-51
2022/09/10 06:48:44;;;;;;;2.45;1.02;;;;;;;25.66;41.07;101595.94;5069846;28;20054;-50
2022/09/10 06:51:14;;;;;;;2.47;0.77;;;;;;;25.65;40.77;101594.22;5068427;28;20109;-50
2022/09/10 06:53:45;;;;;;;2.70;0.88;;;;;;;25.63;40.88;101597.69;5069627;28;20047;-52
2022/09/10 06:56:14;;;;;;;3.00;0.65;;;;;;;25.68;40.73;101600.41;5069934;28;20095;-47
2022/09/10 06:58:42;;;;;;;4.35;1.10;;;;;;;25.66;41.13;101609.09;5061271;28;20088;-48
2022/09/10 07:01:14;;;;;;;3.50;1.00;;;;;;;25.70;40.69;101595.16;5069563;28;20106;-51
2022/09/10 07:03:43;;;;;;;3.03;1.27;;;;;;;25.70;40.99;101603.94;5069972;28;20111;-49
2022/09/10 07:06:14;;;;;;;2.42;0.90;;;;;;;25.74;40.71;101599.59;5074712;28;20161;-51
2022/09/10 07:08:42;;;;;;;4.13;0.50;;;;;;;25.74;41.10;101604.84;5072995;28;20080;-48
2022/09/10 07:11:12;;;;;;;2.67;1.10;;;;;;;25.79;40.75;101609.31;5072395;28;20110;-50
2022/09/10 07:13:42;;;;;;;3.17;0.80;;;;;;;25.85;40.68;101603.28;5073847;28;20033;-50
2022/09/10 07:16:10;;;;;;;2.33;0.70;;;;;;;25.73;40.93;101603.09;5067383;28;20035;-49
2022/09/10 07:18:37;;;;;;;2.00;0.77;;;;;;;25.76;40.86;101609.28;5067521;28;20143;-48
2022/09/10 07:21:11;;;;;;;2.40;0.70;;;;;;;25.79;40.70;101611.09;5068753;28;20090;-48
2022/09/10 07:23:40;;;;;;;1.90;0.70;;;;;;;25.82;40.73;101608.47;5069391;28;20036;-49
2022/09/10 07:26:11;;;;;;;2.13;0.60;;;;;;;25.86;40.77;101604.16;5073846;28;20051;-49
2022/09/10 07:28:41;;;;;;;3.45;0.70;;;;;;;25.86;40.84;101607.66;5074272;28;20379;-49
2022/09/10 07:31:29;;;;;;;5.10;0.70;;;;;;;25.86;40.77;101606.78;5073551;28;20043;-49
2022/09/10 07:33:59;;;;;;;1.50;0.57;;;;;;;25.87;41.03;101604.19;5071419;28;20064;-47
2022/09/10 07:36:29;;;;;;;2.05;0.60;;;;;;;25.76;41.12;101580.34;5053393;28;20036;-48
2022/09/10 07:39:00;;;;;;;2.83;0.70;;;;;;;25.94;41.02;101600.78;5064043;28;20028;-49
2022/09/10 07:41:29;;;;;;;1.50;0.57;;;;;;;25.92;41.16;101607.78;5069922;28;20793;-48
2022/09/10 07:43:57;;;;;;;2.90;0.57;;;;;;;25.98;40.69;101600.84;5068796;28;20032;-51
2022/09/10 07:46:27;;;;;;;1.77;0.45;;;;;;;25.96;41.12;101597.31;5069086;28;20499;-49
2022/09/10 07:48:58;;;;;;;2.92;0.80;;;;;;;25.95;41.23;101604.28;5073015;28;20032;-49
2022/09/10 07:51:28;;;;;;;3.10;0.60;;;;;;;25.82;41.35;101574.31;5068922;28;20129;-48
2022/09/10 07:53:57;;;;;;;3.35;0.80;;;;;;;26.04;41.07;101593.94;5066887;28;20036;-46
2022/09/10 07:56:26;;;;;;;3.70;1.02;;;;;;;26.06;41.09;101599.19;5070417;28;20395;-48
2022/09/10 07:58:56;;;;;;;1.85;0.88;;;;;;;26.06;41.07;101610.59;5070704;28;20024;-47
2022/09/10 08:01:24;;;;;;;2.05;0.80;;;;;;;26.08;41.21;101608.00;5066536;28;20055;-49
2022/09/10 08:03:55;;;;;;;0.88;0.40;;;;;;;26.09;41.45;101608.00;5067787;28;20033;-49
2022/09/10 08:06:23;;;;;;;1.20;0.50;;;;;;;26.13;41.30;101598.47;5064606;28;20032;-46
2022/09/10 08:08:52;;;;;;;1.65;0.50;;;;;;;26.11;41.45;101600.19;5046040;28;20034;-46
2022/09/10 08:11:21;;;;;;;1.88;0.70;;;;;;;26.14;41.49;101602.88;5064257;28;20131;-46
2022/09/10 08:13:51;;;;;;;1.33;0.60;;;;;;;26.15;41.60;101598.47;5072530;28;20077;-46
2022/09/10 08:16:21;;;;;;;4.60;0.75;;;;;;;26.19;41.42;101611.69;5072218;28;20042;-48
2022/09/10 08:18:50;;;;;;;5.75;0.85;;;;;;;26.21;41.78;101602.06;5071827;28;20514;-49
2022/09/10 08:21:20;;;;;;;3.38;0.75;;;;;;;26.27;41.58;101608.28;5067979;28;20082;-48
2022/09/10 08:23:50;;;;;;;1.90;0.60;;;;;;;26.29;41.64;101610.06;5073809;28;20020;-47
2022/09/10 08:26:22;;;;;;;4.15;0.40;;;;;;;26.29;41.90;101615.31;5069344;28;20052;-48
2022/09/10 08:28:52;;;;;;;2.63;0.60;;;;;;;26.29;42.03;101612.69;5069809;28;20388;-54
2022/09/10 08:31:20;;;;;;;1.92;0.68;;;;;;;26.36;42.03;101618.91;5074221;28;20063;-51
2022/09/10 08:33:49;;;;;;;10.63;1.15;;;;;;;26.36;41.95;101613.66;5070100;28;20427;-57
2022/09/10 08:36:17;;;;;;;4.35;0.88;;;;;;;26.42;42.29;101618.09;5068467;28;20032;-47
2022/09/10 08:38:45;;;;;;;4.60;0.90;;;;;;;26.46;42.31;101620.81;5067132;28;20021;-54
2022/09/10 08:41:34;;;;;;;2.88;0.93;;;;;;;26.49;42.31;101620.84;5070515;28;20082;-53
2022/09/10 08:44:15;;;;;;;4.63;0.90;;;;;;;26.54;42.02;101623.53;5063028;28;20047;-52
2022/09/10 08:46:50;;;;;;;3.30;1.10;;;;;;;26.57;42.07;101614.81;5053781;28;20039;-51
2022/09/10 08:49:40;;;;;;;4.03;1.27;;;;;;;26.61;42.12;101619.25;5054557;28;20028;-50
2022/09/10 08:52:20;;;;;;;11.98;1.30;;;;;;;26.64;42.16;101630.69;5069771;28;20575;-48
2022/09/10 08:54:55;;;;;;;2.30;0.80;;;;;;;26.65;42.34;101636.81;5079044;28;20065;-50
2022/09/10 08:57:30;;;;;;;1.27;0.70;;;;;;;26.67;42.43;101627.19;5054670;28;20108;-50
2022/09/10 09:00:00;;;;;;;2.42;0.77;;;;;;;26.76;42.16;101632.59;5059035;28;20029;-46
2022/09/10 09:02:30;;;;;;;2.95;0.90;;;;;;;26.81;42.12;101630.03;5052768;28;20497;-53
2022/09/10 09:05:03;;;;;;;5.00;1.00;;;;;;;26.75;42.30;101622.91;5077736;28;20036;-48
2022/09/10 09:07:38;;;;;;;5.10;1.15;;;;;;;26.80;42.36;101625.63;5072615;28;20047;-52
2022/09/10 09:10:20;;;;;;;4.50;1.17;;;;;;;26.85;42.10;101626.56;5077042;28;20024;-52
2022/09/10 09:12:52;;;;;;;2.17;0.77;;;;;;;26.88;42.14;101637.16;5072534;28;20027;-51
2022/09/10 09:15:24;;;;;;;3.78;0.70;;;;;;;26.88;42.06;101639.78;5049472;28;20403;-56
2022/09/10 09:17:59;;;;;;;4.13;1.13;;;;;;;26.93;42.03;101632.78;5068349;28;20537;-49
2022/09/10 09:20:35;;;;;;;4.28;1.00;;;;;;;26.96;42.02;101639.88;5078671;28;20047;-50
2022/09/10 09:23:19;;;;;;;1.90;0.70;;;;;;;27.02;42.03;101637.28;5075650;28;20039;-52
2022/09/10 09:25:51;;;;;;;9.05;1.05;;;;;;;27.04;42.10;101634.69;5053231;28;20049;-51
2022/09/10 09:28:31;;;;;;;3.90;1.17;;;;;;;27.02;42.11;101632.00;5079675;28;20600;-51
2022/09/10 09:31:01;;;;;;;3.92;1.25;;;;;;;27.02;42.14;101617.97;5071255;28;20032;-49
2022/09/10 09:33:31;;;;;;;10.05;1.35;;;;;;;27.08;42.13;101611.03;5074086;28;20923;-47
2022/09/10 09:36:02;;;;;;;2.60;0.80;;;;;;;27.07;42.27;101618.88;5073127;28;20250;-48
2022/09/10 09:38:38;;;;;;;5.55;1.05;;;;;;;27.11;42.25;101611.06;5073571;28;20029;-50
2022/09/10 09:41:17;;;;;;;4.05;0.73;;;;;;;27.11;42.12;101611.06;5054880;28;20029;-51
2022/09/10 09:44:06;;;;;;;4.75;0.90;;;;;;;27.17;42.13;101619.84;5065329;28;20446;-49
2022/09/10 09:46:34;;;;;;;2.83;0.85;;;;;;;27.21;42.14;101627.84;5045642;28;20063;-50
2022/09/10 09:49:03;;;;;;;3.92;0.77;;;;;;;27.21;42.09;101626.94;5069028;28;20463;-51
2022/09/10 09:51:34;;;;;;;2.47;0.98;;;;;;;27.20;42.10;101612.00;5075284;28;20441;-50
2022/09/10 09:54:08;;;;;;;4.70;1.08;;;;;;;27.28;42.02;101620.88;5075766;28;20028;-51
2022/09/10 09:56:41;;;;;;;5.20;1.00;;;;;;;27.29;41.98;101623.50;5055888;28;20037;-49
2022/09/10 09:59:30;;;;;;;5.22;1.30;;;;;;;27.30;41.74;101611.22;5076636;28;20028;-50
2022/09/10 10:02:18;;;;;;;6.22;1.17;;;;;;;27.36;42.00;101631.47;5046983;28;20052;-50
2022/09/10 10:05:06;;;;;;;5.82;1.20;;;;;;;27.37;41.98;101630.59;5060190;28;20518;-49
2022/09/10 10:07:36;;;;;;;5.70;1.00;;;;;;;27.37;42.00;101628.84;5056575;28;20497;-50
2022/09/10 10:10:06;;;;;;;7.03;1.38;;;;;;;27.38;42.03;101635.00;5073354;28;20032;-49
2022/09/10 10:12:35;;;;;;;3.97;0.98;;;;;;;27.43;41.96;101634.19;5073067;28;20032;-48
2022/09/10 10:15:05;;;;;;;5.32;0.85;;;;;;;27.46;41.93;101640.38;5066349;28;20055;-48
2022/09/10 10:17:34;;;;;;;7.70;1.02;;;;;;;27.47;41.86;101645.66;5048332;28;20504;-47
2022/09/10 10:20:08;;;;;;;8.13;1.13;;;;;;;27.51;41.85;101646.56;5072352;28;20035;-52
2022/09/10 10:22:38;;;;;;;5.80;1.40;;;;;;;27.53;42.07;101644.81;5052983;28;20058;-49
2022/09/10 10:25:48;;;;;;;3.20;1.10;;;;;;;27.50;42.03;101645.69;5072214;28;20733;-50
2022/09/10 10:28:24;;;;;;;6.47;1.38;;;;;;;27.41;41.89;101622.75;5071014;28;20441;-51
2022/09/10 10:30:54;;;;;;;3.97;1.25;;;;;;;27.53;41.91;101643.09;5034633;28;20028;-51
2022/09/10 10:33:31;;;;;;;3.60;1.10;;;;;;;27.52;41.76;101637.78;5047641;28;20020;-51
2022/09/10 10:36:20;;;;;;;4.65;1.52;;;;;;;27.58;41.78;101632.56;5070239;28;20063;-51
2022/09/10 10:38:56;;;;;;;7.25;1.33;;;;;;;27.54;41.62;101636.94;5064885;28;20055;-51
2022/09/10 10:41:29;;;;;;;2.65;1.00;;;;;;;27.52;41.69;101628.13;5074753;28;20016;-51
2022/09/10 10:44:18;;;;;;;5.63;1.13;;;;;;;27.56;41.48;101626.41;5073809;28;20051;-49
2022/09/10 10:46:52;;;;;;;3.60;1.10;;;;;;;27.55;41.64;101622.88;5069759;28;20047;-51
2022/09/10 10:49:51;;;;;;;4.72;1.13;;;;;;;27.56;41.73;101621.13;5066934;28;20030;-52
2022/09/10 10:52:39;;;;;;;3.88;0.93;;;;;;;27.60;41.22;101615.03;5070633;28;20608;-51
2022/09/10 10:55:26;;;;;;;3.10;1.65;;;;;;;27.56;41.14;101618.50;5057581;28;20044;-53
2022/09/10 10:58:19;;;;;;;7.18;1.10;;;;;;;27.57;41.34;101621.13;5064910;28;20044;-51
2022/09/10 11:00:52;;;;;;;5.60;1.30;;;;;;;27.54;41.29;101609.69;5058106;28;20040;-51
2022/09/10 11:03:28;;;;;;;3.35;1.05;;;;;;;27.65;41.08;101617.69;5051558;28;20071;-50
2022/09/10 11:06:03;;;;;;;3.70;1.05;;;;;;;27.64;41.15;101618.56;5069770;28;20118;-51
2022/09/10 11:08:50;;;;;;;;;;;;;;;27.67;41.11;101616.81;5070761;28;20119;-51
2022/09/10 11:11:26;;;;;;;2.85;0.73;;;;;;;27.70;41.17;101626.53;5063624;28;19926;-51
2022/09/10 11:14:16;;;;;;;2.47;0.80;;;;;;;27.65;41.09;101621.19;5073645;28;20497;-50
2022/09/10 11:16:53;;;;;;;4.45;0.90;;;;;;;27.61;41.21;101624.69;5069809;28;20024;-52
2022/09/10 11:19:26;;;;;;;3.70;0.98;;;;;;;27.56;41.33;101626.41;5053375;28;20036;-52
2022/09/10 11:21:59;;;;;;;5.57;0.80;;;;;;;27.65;41.13;101625.59;5065984;28;20474;-49
2022/09/10 11:24:39;;;;;;;2.83;1.00;;;;;;;27.66;41.12;101625.59;5056915;28;20024;-52
2022/09/10 11:27:12;;;;;;;3.63;1.00;;;;;;;27.67;41.12;101618.59;5069740;28;20040;-51
2022/09/10 11:30:18;;;;;;;3.80;1.00;;;;;;;27.71;41.00;101623.03;5066238;28;20029;-51
2022/09/10 11:33:01;;;;;;;4.05;1.10;;;;;;;27.69;41.13;101630.91;5068531;28;20174;-52
2022/09/10 11:35:38;;;;;;;4.82;1.02;;;;;;;27.72;41.26;101637.94;5055519;28;20036;-52
2022/09/10 11:38:15;;;;;;;4.90;0.98;;;;;;;27.73;41.28;101642.34;5076671;28;20142;-51
2022/09/10 11:41:22;;;;;;;3.72;1.20;;;;;;;27.61;41.24;101622.06;5068362;28;20032;-51
2022/09/10 11:44:13;;;;;;;2.47;0.80;;;;;;;27.66;41.34;101632.63;5066491;28;20032;-50
2022/09/10 11:47:04;;;;;;;2.67;0.80;;;;;;;27.64;41.25;101632.59;5067401;28;20040;-52
2022/09/10 11:49:59;;;;;;;2.53;0.88;;;;;;;27.66;41.49;101632.63;5063964;28;20036;-50